Strona główna
METAR-TAF:

METAR-TAF

Lotnisko :

Wittering, Anglia

Szerokość geograficzna: 52-37N, Długość geograficzna: 000-28W, wysokość: 84 m

Aktualna obserwacja pogody

Raport powstał 25 minut temu, godzina 21:50 UTC
Wiatr 7 kt od zachodnio-południowy zachód
Temperatura 11°C
Wilgotność 87%
Ciśnienie 998 hPa
Widzialność 10 km lub więcej

METAR: EGXT 042150Z AUTO 24007KT 9999 SCT060/// BKN130/// 11/09 Q0998

czas: 23:15 (22:15 UTC)

Prognoza

Raport powstał 12 godziny i 0 minut temu, godzina 10:15 UTC
Prognoza ważna od 04 godzina 12 UTC do 04 godzina 18 UTC
Wiatr 7 kt od północny zachód
Widzialność 10 km lub więcej
Rozproszone chmury na wysokości 3200 ft
Przerywane chmury na wysokości 4500 ft

TAF: EGXT 041015Z 0412/0418 31007KT 9999 SCT032 BKN045

Obserwacja i prognoza pogody dla ponad 4000 lotnisk (raport METAR i TAF).

Dostępne stacje oznaczono żółtymi i czerwonymi punktami na mapie.

Najedź kursorem aby zobaczyć nazwę stacji.

Kliknij aby zobaczyć obserwacje i prognozy pogody.

Aby zmienić mapę: kliknij na zielony przycisk z czarnym krzyżykiem, aby powiększyć; na zielony przycisk z myślnikiem, aby pomniejszyć; na zielone strzałki, aby przejść do map sąsiednich.


METAR-TAF: